^^
Station Historical Data
Daily Summary for January 21, 2017 Units:  Metric    English   Both
« Previous Day
Next Day »
Daily Weekly Monthly Yearly Custom
  High: Low: Average:
Temperature: -17.8 °C -21.1 °C -19.4 °C
Dew Point: -17.8 °C -21.6 °C -20 °C
Humidity: Humidity% 87% 92%
Wind Speed: 0km/h 0km/h 0.6km/h
Wind Gust: 0km/h - -
Wind- - NW
Pressure: 0 hPa 34405.1 hPa -
Precipitation: 0 mm    
Historical Graphs
 
 
Tabular Data for January 21, 2017
Time Temperature Dew Point Pressure Wind Wind Speed Wind Gust Humidity Rainfall Rate (Hourly) solar Conditions
-17.8 °C -17.8 °C 0 hPa Calm     Humidity% 0 mm SoftwareType W/m2 Conditions
00:04 -18.8 °C -19.3 °C 34405.1 hPa Calm     93% 0 mm WeatherDisplay:10.37 W/m2 FEW
00:09 -18.8 °C -19.4 °C 34418.7 hPa Calm     93% 0 mm WeatherDisplay:10.37 W/m2 FEW
00:14 -18.9 °C -19.5 °C 34418.7 hPa Calm     93% 0 mm WeatherDisplay:10.37 W/m2 FEW
00:19 -19 °C -19.6 °C 34418.7 hPa Calm     93% 0 mm WeatherDisplay:10.37 W/m2 FEW
00:24 -19.1 °C -19.6 °C 34418.7 hPa WSW 1 km/h 6 km/h 93% 0 mm WeatherDisplay:10.37 W/m2 FEW
00:29 -19.1 °C -19.6 °C 34418.7 hPa Calm     93% 0 mm WeatherDisplay:10.37 W/m2 FEW
00:34 -19.1 °C -19.7 °C 34418.7 hPa Calm     93% 0 mm WeatherDisplay:10.37 W/m2 FEW
00:39 -19.2 °C -19.7 °C 34428.8 hPa Calm     93% 0 mm WeatherDisplay:10.37 W/m2 FEW
00:44 -19.2 °C -19.8 °C 34428.8 hPa Calm     93% 0 mm WeatherDisplay:10.37 W/m2 FEW
00:49 -19.3 °C -19.8 °C 34418.7 hPa WSW 0.3 km/h 2.6 km/h 93% 0 mm WeatherDisplay:10.37 W/m2 FEW
00:54 -19.3 °C -19.8 °C 34418.7 hPa Calm     93% 0 mm WeatherDisplay:10.37 W/m2 FEW
00:59 -19.3 °C -19.9 °C 34428.8 hPa Calm     93% 0 mm WeatherDisplay:10.37 W/m2 FEW
01:04 -19.3 °C -19.9 °C 34428.8 hPa Calm     93% 0 mm WeatherDisplay:10.37 W/m2 FEW
01:09 -19.4 °C -19.9 °C 34428.8 hPa Calm     93% 0 mm WeatherDisplay:10.37 W/m2 FEW
01:14 -19.4 °C -19.9 °C 34428.8 hPa Calm     93% 0 mm WeatherDisplay:10.37 W/m2 FEW
01:19 -19.4 °C -19.9 °C 34442.4 hPa Calm     93% 0 mm WeatherDisplay:10.37 W/m2 FEW
01:24 -19.3 °C -19.8 °C 34442.4 hPa Calm     93% 0 mm WeatherDisplay:10.37 W/m2 FEW
01:29 -19.2 °C -19.8 °C 34442.4 hPa Calm     92% 0 mm WeatherDisplay:10.37 W/m2 FEW
01:34 -19 °C -19.6 °C 34442.4 hPa Calm     92% 0 mm WeatherDisplay:10.37 W/m2 FEW
01:39 -18.9 °C -19.6 °C 34442.4 hPa Calm     92% 0 mm WeatherDisplay:10.37 W/m2 FEW
01:44 -18.8 °C -19.4 °C 34442.4 hPa WSW 1.6 km/h 2.6 km/h 92% 0 mm WeatherDisplay:10.37 W/m2 FEW
01:49 -18.8 °C -19.4 °C 34442.4 hPa NW 6.3 km/h 11.9 km/h 92% 0 mm WeatherDisplay:10.37 W/m2 FEW
01:54 -18.7 °C -19.3 °C 34442.4 hPa WNW 0.5 km/h 6 km/h 92% 0 mm WeatherDisplay:10.37 W/m2 FEW
01:59 -18.7 °C -19.3 °C 34442.4 hPa WNW 5 km/h 9 km/h 92% 0 mm WeatherDisplay:10.37 W/m2 FEW
02:04 -18.6 °C -19.2 °C 34442.4 hPa North 4.7 km/h 11.9 km/h 92% 0 mm WeatherDisplay:10.37 W/m2 FEW
02:09 -18.6 °C -19.2 °C 34442.4 hPa Calm   3.1 km/h 92% 0 mm WeatherDisplay:10.37 W/m2 FEW
02:14 -18.6 °C -19.2 °C 34442.4 hPa WNW 6.4 km/h 12.9 km/h 92% 0 mm WeatherDisplay:10.37 W/m2 FEW
02:19 -18.6 °C -19.1 °C 34452.6 hPa NW 3.7 km/h 9 km/h 93% 0 mm WeatherDisplay:10.37 W/m2 FEW
02:24 -18.6 °C -19.2 °C 34452.6 hPa NW 5.1 km/h 17.9 km/h 92% 0 mm WeatherDisplay:10.37 W/m2 FEW
02:29 -18.7 °C -19.3 °C 34452.6 hPa NNW 6.8 km/h 20.9 km/h 92% 0 mm WeatherDisplay:10.37 W/m2 FEW
02:34 -18.7 °C -19.2 °C 34452.6 hPa Calm     93% 0 mm WeatherDisplay:10.37 W/m2 FEW
02:39 -18.7 °C -19.3 °C 34452.6 hPa NW 2.9 km/h 9 km/h 93% 0 mm WeatherDisplay:10.37 W/m2 FEW
02:44 -18.7 °C -19.3 °C 34452.6 hPa NNW 6.8 km/h 11.9 km/h 93% 0 mm WeatherDisplay:10.37 W/m2 FEW
02:49 -18.7 °C -19.3 °C 34452.6 hPa NNW 1.6 km/h 6 km/h 93% 0 mm WeatherDisplay:10.37 W/m2 FEW
02:54 -18.7 °C -19.3 °C 34452.6 hPa NNW 6.9 km/h 11.9 km/h 92% 0 mm WeatherDisplay:10.37 W/m2 FEW
02:59 -18.7 °C -19.2 °C 34452.6 hPa West 4.2 km/h 9 km/h 93% 0 mm WeatherDisplay:10.37 W/m2 FEW
03:04 -18.7 °C -19.3 °C 34452.6 hPa North 3.4 km/h 9 km/h 93% 0 mm WeatherDisplay:10.37 W/m2 FEW
03:09 -18.7 °C -19.2 °C 34452.6 hPa NNW 1.8 km/h 9 km/h 93% 0 mm WeatherDisplay:10.37 W/m2 FEW
03:14 -18.7 °C -19.2 °C 34462.7 hPa NW 5.5 km/h 12.9 km/h 93% 0 mm WeatherDisplay:10.37 W/m2 FEW
03:19 -18.7 °C -19.2 °C 34462.7 hPa NW 0.8 km/h 6 km/h 93% 0 mm WeatherDisplay:10.37 W/m2 FEW
03:24 -18.7 °C -19.2 °C 34462.7 hPa NW 0.5 km/h 9 km/h 93% 0 mm WeatherDisplay:10.37 W/m2 FEW
03:29 -18.7 °C -19.2 °C 34462.7 hPa West 3.7 km/h 17.9 km/h 93% 0 mm WeatherDisplay:10.37 W/m2 FEW
03:34 -18.7 °C -19.2 °C 34462.7 hPa Calm     93% 0 mm WeatherDisplay:10.37 W/m2 FEW
03:39 -18.7 °C -19.2 °C 34462.7 hPa NW 6.8 km/h 10.3 km/h 93% 0 mm WeatherDisplay:10.37 W/m2 FEW
03:44 -18.7 °C -19.2 °C 34462.7 hPa Calm     93% 0 mm WeatherDisplay:10.37 W/m2 FEW
03:49 -18.7 °C -19.2 °C 34462.7 hPa West 3.9 km/h 15 km/h 93% 0 mm WeatherDisplay:10.37 W/m2 FEW
03:54 -18.7 °C -19.2 °C 34462.7 hPa WNW 2.1 km/h 9 km/h 93% 0 mm WeatherDisplay:10.37 W/m2 FEW
03:59 -18.7 °C -19.2 °C 34462.7 hPa Calm     93% 0 mm WeatherDisplay:10.37 W/m2 FEW
04:04 -18.7 °C -19.3 °C 34462.7 hPa Calm   6 km/h 93% 0 mm WeatherDisplay:10.37 W/m2 FEW
04:09 -18.7 °C -19.3 °C 34462.7 hPa Calm     93% 0 mm WeatherDisplay:10.37 W/m2 FEW
04:14 -18.8 °C -19.3 °C 34462.7 hPa Calm     93% 0 mm WeatherDisplay:10.37 W/m2 FEW
04:19 -18.8 °C -19.3 °C 34462.7 hPa Calm     93% 0 mm WeatherDisplay:10.37 W/m2 FEW
04:24 -18.8 °C -19.4 °C 34462.7 hPa West 0.8 km/h 15 km/h 93% 0 mm WeatherDisplay:10.37 W/m2 FEW
04:29 -18.9 °C -19.4 °C 34462.7 hPa Calm   6 km/h 93% 0 mm WeatherDisplay:10.37 W/m2 FEW
04:34 -18.9 °C -19.5 °C 34462.7 hPa WNW 0.3 km/h 5.1 km/h 93% 0 mm WeatherDisplay:10.37 W/m2 FEW
04:39 -18.9 °C -19.5 °C 34462.7 hPa Calm     93% 0 mm WeatherDisplay:10.37 W/m2 FEW
04:44 -19.1 °C -19.6 °C 34462.7 hPa WNW 1 km/h 6 km/h 93% 0 mm WeatherDisplay:10.37 W/m2 FEW
04:49 -19.1 °C -19.7 °C 34462.7 hPa Calm     93% 0 mm WeatherDisplay:10.37 W/m2 FEW
04:54 -19.2 °C -19.7 °C 34462.7 hPa Calm     93% 0 mm WeatherDisplay:10.37 W/m2 FEW
04:59 -19.2 °C -19.8 °C 34462.7 hPa Calm     93% 0 mm WeatherDisplay:10.37 W/m2 FEW
05:04 -19.3 °C -19.8 °C 34476.3 hPa Calm     93% 0 mm WeatherDisplay:10.37 W/m2 FEW
05:09 -19.3 °C -19.9 °C 34476.3 hPa Calm     93% 0 mm WeatherDisplay:10.37 W/m2 FEW
05:14 -19.4 °C -19.9 °C 34476.3 hPa Calm     93% 0 mm WeatherDisplay:10.37 W/m2 FEW
05:19 -19.5 °C -20 °C 34476.3 hPa Calm     93% 0 mm WeatherDisplay:10.37 W/m2 FEW
05:24 -19.5 °C -20.1 °C 34476.3 hPa Calm     93% 0 mm WeatherDisplay:10.37 W/m2 FEW
05:29 -19.6 °C -20.1 °C 34476.3 hPa Calm     93% 0 mm WeatherDisplay:10.37 W/m2 FEW
05:34 -19.6 °C -20.1 °C 34476.3 hPa Calm     93% 0 mm WeatherDisplay:10.37 W/m2 FEW
05:39 -19.6 °C -20.2 °C 34476.3 hPa Calm     93% 0 mm WeatherDisplay:10.37 W/m2 FEW
05:44 -19.7 °C -20.2 °C 34476.3 hPa Calm     93% 0 mm WeatherDisplay:10.37 W/m2 FEW
05:49 -19.6 °C -20.2 °C 34476.3 hPa Calm     93% 0 mm WeatherDisplay:10.37 W/m2 FEW
05:54 -19.6 °C -20.2 °C 34476.3 hPa Calm     93% 0 mm WeatherDisplay:10.37 W/m2 FEW
05:59 -19.6 °C -20.1 °C 34476.3 hPa Calm     93% 0 mm WeatherDisplay:10.37 W/m2 FEW
06:04 -19.6 °C -20.1 °C 34476.3 hPa Calm     93% 0 mm WeatherDisplay:10.37 W/m2 FEW
06:09 -19.6 °C -20.1 °C 34476.3 hPa Calm     93% 0 mm WeatherDisplay:10.37 W/m2 FEW
06:14 -19.6 °C -20.1 °C 34476.3 hPa Calm     93% 0 mm WeatherDisplay:10.37 W/m2 FEW
06:19 -19.6 °C -20.1 °C 34476.3 hPa NW 0.5 km/h 3.1 km/h 93% 0 mm WeatherDisplay:10.37 W/m2 FEW
06:24 -19.6 °C -20.1 °C 34476.3 hPa Calm     93% 0 mm WeatherDisplay:10.37 W/m2 FEW
06:29 -19.6 °C -20.2 °C 34476.3 hPa Calm     93% 0 mm WeatherDisplay:10.37 W/m2 FEW
06:34 -19.7 °C -20.2 °C 34476.3 hPa Calm     93% 0 mm WeatherDisplay:10.37 W/m2 FEW
06:39 -19.7 °C -20.2 °C 34476.3 hPa Calm     93% 0 mm WeatherDisplay:10.37 W/m2 FEW
06:44 -19.7 °C -20.2 °C 34476.3 hPa Calm     93% 0 mm WeatherDisplay:10.37 W/m2 FEW
06:49 -19.7 °C -20.2 °C 34476.3 hPa Calm     93% 0 mm WeatherDisplay:10.37 W/m2 FEW
06:54 -19.6 °C -20.2 °C 34476.3 hPa Calm     93% 0 mm WeatherDisplay:10.37 W/m2 FEW
06:59 -19.7 °C -20.2 °C 34476.3 hPa Calm     93% 0 mm WeatherDisplay:10.37 W/m2 FEW
07:04 -19.7 °C -20.2 °C 34486.4 hPa Calm     93% 0 mm WeatherDisplay:10.37 W/m2 FEW
07:09 -19.8 °C -20.3 °C 34486.4 hPa Calm     93% 0 mm WeatherDisplay:10.37 W/m2 FEW
07:14 -19.8 °C -20.3 °C 34486.4 hPa Calm     93% 0 mm WeatherDisplay:10.37 W/m2 FEW
07:19 -19.9 °C -20.4 °C 34486.4 hPa Calm     93% 0 mm WeatherDisplay:10.37 W/m2 FEW
07:24 -19.9 °C -20.4 °C 34486.4 hPa NW 1.6 km/h 12.9 km/h 93% 0 mm WeatherDisplay:10.37 W/m2 FEW
07:29 -19.8 °C -20.3 °C 34486.4 hPa WNW 0.5 km/h 5.1 km/h 93% 0 mm WeatherDisplay:10.37 W/m2 FEW
07:34 -19.8 °C -20.3 °C 34486.4 hPa Calm     93% 0 mm WeatherDisplay:10.37 W/m2 FEW
07:39 -19.8 °C -20.3 °C 34486.4 hPa Calm     93% 0 mm WeatherDisplay:10.37 W/m2 FEW
07:44 -19.8 °C -20.3 °C 34486.4 hPa Calm     93% 0 mm WeatherDisplay:10.37 W/m2 FEW
07:49 -19.8 °C -20.3 °C 34486.4 hPa Calm     93% 0 mm WeatherDisplay:10.37 W/m2 FEW
07:54 -19.8 °C -20.3 °C 34486.4 hPa NNW 1.8 km/h 6 km/h 93% 0 mm WeatherDisplay:10.37 W/m2 FEW
07:59 -19.8 °C -20.3 °C 34486.4 hPa Calm     93% 0 mm WeatherDisplay:10.37 W/m2 FEW
08:04 -19.8 °C -20.3 °C 34486.4 hPa Calm     93% 0 mm WeatherDisplay:10.37 W/m2 FEW
08:09 -19.9 °C -20.4 °C 34486.4 hPa Calm     93% 0 mm WeatherDisplay:10.37 W/m2 FEW
08:14 -19.8 °C -20.4 °C 34486.4 hPa WNW 0.5 km/h 9 km/h 93% 0 mm WeatherDisplay:10.37 W/m2 FEW
08:19 -19.8 °C -20.3 °C 34496.6 hPa Calm     93% 0 mm WeatherDisplay:10.37 W/m2 FEW
08:24 -19.8 °C -20.4 °C 34496.6 hPa Calm     93% 0 mm WeatherDisplay:10.37 W/m2 FEW
08:29 -19.9 °C -20.4 °C 34496.6 hPa Calm     93% 0 mm WeatherDisplay:10.37 W/m2 FEW
08:34 -19.9 °C -20.4 °C 34496.6 hPa Calm   9 km/h 93% 0 mm WeatherDisplay:10.37 W/m2 FEW
08:39 -19.9 °C -20.5 °C 34496.6 hPa Calm   3.1 km/h 93% 0 mm WeatherDisplay:10.37 W/m2 FEW
08:44 -19.9 °C -20.4 °C 34496.6 hPa WNW 2.3 km/h 6 km/h 93% 0 mm WeatherDisplay:10.37 W/m2 FEW
08:49 -19.8 °C -20.3 °C 34496.6 hPa Calm   3.1 km/h 93% 0 mm WeatherDisplay:10.37 W/m2 FEW
08:54 -19.7 °C -20.2 °C 34496.6 hPa NW 1.6 km/h 6 km/h 93% 0 mm WeatherDisplay:10.37 W/m2 FEW
08:59 -19.4 °C -20.1 °C 34496.6 hPa Calm     92% 0 mm WeatherDisplay:10.37 W/m2 FEW
09:04 -19.3 °C -19.9 °C 34510.1 hPa Calm   3.1 km/h 92% 0 mm WeatherDisplay:10.37 W/m2 FEW
09:09 -19.3 °C -19.8 °C 34510.1 hPa NNW 3.9 km/h 15 km/h 93% 0 mm WeatherDisplay:10.37 W/m2 FEW
09:14 -19.2 °C -19.8 °C 34510.1 hPa North 1.6 km/h 11.9 km/h 92% 0 mm WeatherDisplay:10.37 W/m2 FEW
09:19 -19.2 °C -19.7 °C 34510.1 hPa Calm     93% 0 mm WeatherDisplay:10.37 W/m2 FEW
09:24 -19.3 °C -19.8 °C 34510.1 hPa Calm     93% 0 mm WeatherDisplay:10.37 W/m2 FEW
09:29 -19.4 °C -20 °C 34520.3 hPa Calm     93% 0 mm WeatherDisplay:10.37 W/m2 FEW
09:34 -19.5 °C -20.1 °C 34520.3 hPa Calm     93% 0 mm WeatherDisplay:10.37 W/m2 FEW
09:39 -19.6 °C -20.1 °C 34520.3 hPa Calm     93% 0 mm WeatherDisplay:10.37 W/m2 FEW
09:44 -19.6 °C -20.1 °C 34520.3 hPa Calm     93% 0 mm WeatherDisplay:10.37 W/m2 FEW
09:49 -19.6 °C -20.2 °C 34520.3 hPa Calm     93% 0 mm WeatherDisplay:10.37 W/m2 FEW
09:54 -19.6 °C -20.2 °C 34533.8 hPa Calm     93% 0 mm WeatherDisplay:10.37 W/m2 FEW
09:59 -19.6 °C -20.1 °C 34533.8 hPa Calm     93% 0 mm WeatherDisplay:10.37 W/m2 FEW
10:04 -19.6 °C -20.1 °C 34533.8 hPa Calm     93% 0 mm WeatherDisplay:10.37 W/m2 FEW
10:09 -19.5 °C -20.1 °C 34533.8 hPa NNW 2.6 km/h 9 km/h 93% 0 mm WeatherDisplay:10.37 W/m2 FEW
10:14 -19.5 °C -20 °C 34533.8 hPa WNW 0.5 km/h 3.1 km/h 93% 0 mm WeatherDisplay:10.37 W/m2 FEW
10:19 -19.4 °C -19.9 °C 34533.8 hPa WNW 1.3 km/h 9 km/h 93% 0 mm WeatherDisplay:10.37 W/m2 FEW
10:24 -19.4 °C -19.9 °C 34533.8 hPa Calm     93% 0 mm WeatherDisplay:10.37 W/m2 FEW
10:29 -19.3 °C -19.9 °C 34544 hPa NW 2.1 km/h 9 km/h 93% 0 mm WeatherDisplay:10.37 W/m2 FEW
10:34 -19.3 °C -19.8 °C 34544 hPa Calm   6 km/h 93% 0 mm WeatherDisplay:10.37 W/m2 FEW
10:39 -19.3 °C -19.8 °C 34533.8 hPa Calm     93% 0 mm WeatherDisplay:10.37 W/m2 FEW
10:44 -19.2 °C -19.8 °C 34533.8 hPa Calm     93% 0 mm WeatherDisplay:10.37 W/m2 FEW
10:49 -19.2 °C -19.8 °C 34533.8 hPa Calm     93% 0 mm WeatherDisplay:10.37 W/m2 FEW
10:54 -19.2 °C -19.7 °C 34544 hPa NW 5 km/h 6 km/h 93% 0 mm WeatherDisplay:10.37 W/m2 FEW
10:59 -19.1 °C -19.6 °C 34544 hPa WNW 1.8 km/h 6 km/h 93% 0 mm WeatherDisplay:10.37 W/m2 FEW
11:04 -19 °C -19.6 °C 34544 hPa Calm   9 km/h 93% 0 mm WeatherDisplay:10.37 W/m2 FEW
11:09 -19 °C -19.6 °C 34544 hPa Calm     93% 0 mm WeatherDisplay:10.37 W/m2 FEW
11:14 -18.9 °C -19.5 °C 34554.1 hPa Calm     93% 0 mm WeatherDisplay:10.37 W/m2 FEW
11:19 -18.9 °C -19.5 °C 34554.1 hPa NW 3.1 km/h 10.3 km/h 93% 0 mm WeatherDisplay:10.37 W/m2 FEW
11:24 -18.8 °C -19.4 °C 34554.1 hPa NW 4.3 km/h 11.9 km/h 93% 0 mm WeatherDisplay:10.37 W/m2 FEW
11:29 -18.7 °C -19.3 °C 34554.1 hPa NW 3.7 km/h 7.7 km/h 93% 0 mm WeatherDisplay:10.37 W/m2 FEW
11:34 -18.6 °C -19.2 °C 34554.1 hPa NNW 2.9 km/h 11.9 km/h 93% 0 mm WeatherDisplay:10.37 W/m2 FEW
11:39 -18.6 °C -19.1 °C 34554.1 hPa NNW 4.2 km/h 6 km/h 93% 0 mm WeatherDisplay:10.37 W/m2 FEW
11:44 -18.5 °C -19.1 °C 34554.1 hPa NNW 0.3 km/h 3.1 km/h 93% 0 mm WeatherDisplay:10.37 W/m2 FEW
11:49 -18.4 °C -19.1 °C 34567.7 hPa NW 4.3 km/h 9 km/h 92% 0 mm WeatherDisplay:10.37 W/m2 FEW
11:54 -18.4 °C -19.1 °C 34567.7 hPa NNW 3.4 km/h 9 km/h 92% 0 mm WeatherDisplay:10.37 W/m2 FEW
11:59 -18.4 °C -19 °C 34567.7 hPa WNW 3.9 km/h 9 km/h 92% 0 mm WeatherDisplay:10.37 W/m2 FEW
12:04 -18.3 °C -18.9 °C 34567.7 hPa West 5.1 km/h 10.3 km/h 92% 0 mm WeatherDisplay:10.37 W/m2 FEW
12:09 -18.3 °C -18.9 °C 34577.8 hPa WNW 5 km/h 15 km/h 92% 0 mm WeatherDisplay:10.37 W/m2 FEW
12:14 -18.2 °C -18.9 °C 34567.7 hPa NNW 1.6 km/h 11.9 km/h 91% 0 mm WeatherDisplay:10.37 W/m2 FEW
12:19 -18.2 °C -18.9 °C 34567.7 hPa NW 4.2 km/h 9 km/h 91% 0 mm WeatherDisplay:10.37 W/m2 FEW
12:24 -18.2 °C -18.9 °C 34577.8 hPa NW 4.2 km/h 5.1 km/h 91% 0 mm WeatherDisplay:10.37 W/m2 FEW
12:29 -18.2 °C -18.9 °C 34577.8 hPa West 1 km/h 9 km/h 90% 0 mm WeatherDisplay:10.37 W/m2 FEW
12:34 -18.1 °C -18.9 °C 34577.8 hPa WNW 1.8 km/h 6 km/h 90% 0 mm WeatherDisplay:10.37 W/m2 FEW
12:39 -18.1 °C -18.9 °C 34577.8 hPa West 4.3 km/h 9 km/h 90% 0 mm WeatherDisplay:10.37 W/m2 FEW
12:44 -18.1 °C -19 °C 34577.8 hPa NW 3.1 km/h 15 km/h 89% 0 mm WeatherDisplay:10.37 W/m2 FEW
12:49 -18.1 °C -18.9 °C 34577.8 hPa Calm   9 km/h 89% 0 mm WeatherDisplay:10.37 W/m2 FEW
12:54 -18.1 °C -18.9 °C 34577.8 hPa Calm     89% 0 mm WeatherDisplay:10.37 W/m2 FEW
12:59 -18.1 °C -19 °C 34591.4 hPa NW 0.5 km/h 7.7 km/h 89% 0 mm WeatherDisplay:10.37 W/m2 FEW
13:04 -18.1 °C -19 °C 34591.4 hPa NNW 2.9 km/h 15 km/h 89% 0 mm WeatherDisplay:10.37 W/m2 FEW
13:09 -18 °C -18.9 °C 34591.4 hPa Calm     89% 0 mm WeatherDisplay:10.37 W/m2 FEW
13:14 -18 °C -18.9 °C 34591.4 hPa Calm     89% 0 mm WeatherDisplay:10.37 W/m2 FEW
13:19 -18.1 °C -19 °C 34591.4 hPa Calm   3.1 km/h 88% 0 mm WeatherDisplay:10.37 W/m2 FEW
13:24 -18 °C -19 °C 34601.5 hPa NW 2.6 km/h 6 km/h 88% 0 mm WeatherDisplay:10.37 W/m2 FEW
13:29 -18 °C -18.9 °C 34601.5 hPa Calm   9 km/h 88% 0 mm WeatherDisplay:10.37 W/m2 FEW
13:34 -17.9 °C -18.9 °C 34601.5 hPa Calm     88% 0 mm WeatherDisplay:10.37 W/m2 FEW
13:39 -17.9 °C -18.9 °C 34601.5 hPa West 0.3 km/h 9 km/h 88% 0 mm WeatherDisplay:10.37 W/m2 FEW
13:44 -17.9 °C -19 °C 34611.7 hPa NNW 0.5 km/h 2.6 km/h 87% 0 mm WeatherDisplay:10.37 W/m2 FEW
13:49 -17.9 °C -19 °C 34611.7 hPa Calm   6 km/h 87% 0 mm WeatherDisplay:10.37 W/m2 FEW
13:54 -17.9 °C -19 °C 34611.7 hPa NW 4.2 km/h 9 km/h 87% 0 mm WeatherDisplay:10.37 W/m2 FEW
13:59 -17.9 °C -19 °C 34625.2 hPa Calm     87% 0 mm WeatherDisplay:10.37 W/m2 FEW
14:04 -18 °C -19 °C 34611.7 hPa NW 1 km/h 5.1 km/h 88% 0 mm WeatherDisplay:10.37 W/m2 FEW
14:09 -18.1 °C -19 °C 34611.7 hPa Calm     88% 0 mm WeatherDisplay:10.37 W/m2 FEW
14:14 -18.1 °C -19.1 °C 34611.7 hPa NW 2.3 km/h 9 km/h 88% 0 mm WeatherDisplay:10.37 W/m2 FEW
14:19 -18.1 °C -19.1 °C 34625.2 hPa Calm     88% 0 mm WeatherDisplay:10.37 W/m2 FEW
14:24 -18.1 °C -19.1 °C 34625.2 hPa NW 0.5 km/h 7.7 km/h 88% 0 mm WeatherDisplay:10.37 W/m2 FEW
14:29 -18.2 °C -19.1 °C 34625.2 hPa Calm     88% 0 mm WeatherDisplay:10.37 W/m2 FEW
14:34 -18.2 °C -19.1 °C 34625.2 hPa Calm     89% 0 mm WeatherDisplay:10.37 W/m2 FEW
14:39 -18.2 °C -19.1 °C 34625.2 hPa Calm     89% 0 mm WeatherDisplay:10.37 W/m2 FEW
14:44 -18.3 °C -19.2 °C 34625.2 hPa Calm     89% 0 mm WeatherDisplay:10.37 W/m2 FEW
14:49 -18.3 °C -19.2 °C 34625.2 hPa Calm     89% 0 mm WeatherDisplay:10.37 W/m2 FEW
14:54 -18.4 °C -19.2 °C 34625.2 hPa Calm     90% 0 mm WeatherDisplay:10.37 W/m2 FEW
14:59 -18.4 °C -19.2 °C 34635.4 hPa Calm     90% 0 mm WeatherDisplay:10.37 W/m2 FEW
15:04 -18.4 °C -19.3 °C 34635.4 hPa Calm     90% 0 mm WeatherDisplay:10.37 W/m2 FEW
15:09 -18.5 °C -19.3 °C 34635.4 hPa Calm     90% 0 mm WeatherDisplay:10.37 W/m2 FEW
15:14 -18.6 °C -19.3 °C 34635.4 hPa Calm     91% 0 mm WeatherDisplay:10.37 W/m2 FEW
15:19 -18.6 °C -19.4 °C 34645.6 hPa NW 0.5 km/h 6 km/h 90% 0 mm WeatherDisplay:10.37 W/m2 FEW
15:24 -18.6 °C -19.3 °C 34645.6 hPa Calm     91% 0 mm WeatherDisplay:10.37 W/m2 FEW
15:29 -18.7 °C -19.3 °C 34645.6 hPa Calm     91% 0 mm WeatherDisplay:10.37 W/m2 FEW
15:34 -18.7 °C -19.4 °C 34645.6 hPa Calm     91% 0 mm WeatherDisplay:10.37 W/m2 FEW
15:39 -18.7 °C -19.4 °C 34645.6 hPa Calm     91% 0 mm WeatherDisplay:10.37 W/m2 FEW
15:44 -18.7 °C -19.4 °C 34645.6 hPa Calm     91% 0 mm WeatherDisplay:10.37 W/m2 FEW
15:49 -18.8 °C -19.5 °C 34645.6 hPa Calm     91% 0 mm WeatherDisplay:10.37 W/m2 FEW
15:54 -18.8 °C -19.5 °C 34659.1 hPa Calm     91% 0 mm WeatherDisplay:10.37 W/m2 FEW
15:59 -18.8 °C -19.6 °C 34659.1 hPa Calm     91% 0 mm WeatherDisplay:10.37 W/m2 FEW
16:04 -18.9 °C -19.6 °C 34659.1 hPa Calm     91% 0 mm WeatherDisplay:10.37 W/m2 FEW
16:09 -18.9 °C -19.7 °C 34659.1 hPa Calm     91% 0 mm WeatherDisplay:10.37 W/m2 FEW
16:14 -19.1 °C -19.8 °C 34659.1 hPa Calm     91% 0 mm WeatherDisplay:10.37 W/m2 FEW
16:19 -19.1 °C -19.8 °C 34659.1 hPa Calm     91% 0 mm WeatherDisplay:10.37 W/m2 FEW
16:24 -19.2 °C -19.9 °C 34659.1 hPa Calm     91% 0 mm WeatherDisplay:10.37 W/m2 FEW
16:29 -19.2 °C -19.8 °C 34659.1 hPa Calm     92% 0 mm WeatherDisplay:10.37 W/m2 FEW
16:34 -19.3 °C -19.9 °C 34659.1 hPa Calm     92% 0 mm WeatherDisplay:10.37 W/m2 FEW
16:39 -19.3 °C -19.9 °C 34659.1 hPa Calm     92% 0 mm WeatherDisplay:10.37 W/m2 FEW
16:44 -19.4 °C -20.1 °C 34659.1 hPa Calm     92% 0 mm WeatherDisplay:10.37 W/m2 FEW
16:49 -19.5 °C -20.1 °C 34659.1 hPa Calm     92% 0 mm WeatherDisplay:10.37 W/m2 FEW
16:54 -19.6 °C -20.2 °C 34659.1 hPa Calm     92% 0 mm WeatherDisplay:10.37 W/m2 FEW
16:59 -19.6 °C -20.2 °C 34659.1 hPa Calm     92% 0 mm WeatherDisplay:10.37 W/m2 FEW
17:04 -19.7 °C -20.3 °C 34659.1 hPa Calm     92% 0 mm WeatherDisplay:10.37 W/m2 FEW
17:09 -19.7 °C -20.3 °C 34659.1 hPa Calm     92% 0 mm WeatherDisplay:10.37 W/m2 FEW
17:14 -19.8 °C -20.4 °C 34659.1 hPa Calm     92% 0 mm WeatherDisplay:10.37 W/m2 FEW
17:19 -19.8 °C -20.4 °C 34659.1 hPa Calm     92% 0 mm WeatherDisplay:10.37 W/m2 FEW
17:24 -19.9 °C -20.5 °C 34659.1 hPa Calm     92% 0 mm WeatherDisplay:10.37 W/m2 FEW
17:29 -19.9 °C -20.5 °C 34669.3 hPa Calm     92% 0 mm WeatherDisplay:10.37 W/m2 FEW
17:34 -19.9 °C -20.6 °C 34659.1 hPa Calm     92% 0 mm WeatherDisplay:10.37 W/m2 FEW
17:39 -20 °C -20.6 °C 34659.1 hPa Calm     92% 0 mm WeatherDisplay:10.37 W/m2 FEW
17:44 -20.1 °C -20.7 °C 34669.3 hPa Calm     92% 0 mm WeatherDisplay:10.37 W/m2 FEW
17:49 -20.1 °C -20.7 °C 34669.3 hPa Calm     92% 0 mm WeatherDisplay:10.37 W/m2 FEW
17:54 -20.1 °C -20.7 °C 34669.3 hPa Calm     92% 0 mm WeatherDisplay:10.37 W/m2 FEW
17:59 -20.2 °C -20.8 °C 34669.3 hPa Calm     92% 0 mm WeatherDisplay:10.37 W/m2 FEW
18:04 -20.2 °C -20.8 °C 34669.3 hPa Calm     92% 0 mm WeatherDisplay:10.37 W/m2 FEW
18:09 -20.2 °C -20.8 °C 34669.3 hPa Calm     92% 0 mm WeatherDisplay:10.37 W/m2 FEW
18:14 -20.2 °C -20.9 °C 34669.3 hPa Calm     92% 0 mm WeatherDisplay:10.37 W/m2 FEW
18:19 -20.3 °C -20.9 °C 34669.3 hPa Calm     92% 0 mm WeatherDisplay:10.37 W/m2 FEW
18:24 -20.3 °C -20.8 °C 34669.3 hPa Calm     93% 0 mm WeatherDisplay:10.37 W/m2 FEW
18:29 -20.3 °C -20.8 °C 34669.3 hPa Calm     93% 0 mm WeatherDisplay:10.37 W/m2 FEW
18:34 -20.3 °C -20.8 °C 34669.3 hPa Calm     93% 0 mm WeatherDisplay:10.37 W/m2 FEW
18:39 -20.3 °C -20.9 °C 34669.3 hPa Calm     92% 0 mm WeatherDisplay:10.37 W/m2 FEW
18:44 -20.4 °C -21 °C 34669.3 hPa Calm     92% 0 mm WeatherDisplay:10.37 W/m2 FEW
18:49 -20.4 °C -21 °C 34669.3 hPa Calm     92% 0 mm WeatherDisplay:10.37 W/m2 FEW
18:54 -20.4 °C -21 °C 34669.3 hPa Calm     92% 0 mm WeatherDisplay:10.37 W/m2 FEW
18:59 -20.4 °C -20.9 °C 34669.3 hPa Calm     93% 0 mm WeatherDisplay:10.37 W/m2 FEW
19:04 -20.4 °C -20.9 °C 34669.3 hPa Calm     93% 0 mm WeatherDisplay:10.37 W/m2 FEW
19:09 -20.4 °C -20.9 °C 34669.3 hPa Calm     93% 0 mm WeatherDisplay:10.37 W/m2 FEW
19:14 -20.4 °C -20.9 °C 34659.1 hPa Calm     93% 0 mm WeatherDisplay:10.37 W/m2 FEW
19:19 -20.4 °C -20.9 °C 34659.1 hPa Calm     93% 0 mm WeatherDisplay:10.37 W/m2 FEW
19:24 -20.4 °C -20.9 °C 34669.3 hPa Calm     93% 0 mm WeatherDisplay:10.37 W/m2 FEW
19:29 -20.4 °C -20.9 °C 34669.3 hPa Calm     93% 0 mm WeatherDisplay:10.37 W/m2 FEW
19:34 -20.4 °C -20.9 °C 34669.3 hPa Calm     93% 0 mm WeatherDisplay:10.37 W/m2 FEW
19:39 -20.4 °C -20.9 °C 34669.3 hPa Calm     93% 0 mm WeatherDisplay:10.37 W/m2 FEW
19:44 -20.4 °C -20.9 °C 34669.3 hPa Calm     93% 0 mm WeatherDisplay:10.37 W/m2 FEW
19:49 -20.4 °C -20.9 °C 34669.3 hPa Calm     93% 0 mm WeatherDisplay:10.37 W/m2 FEW
19:54 -20.4 °C -21 °C 34669.3 hPa Calm     93% 0 mm WeatherDisplay:10.37 W/m2 FEW
19:59 -20.4 °C -21 °C 34669.3 hPa Calm     93% 0 mm WeatherDisplay:10.37 W/m2 FEW
20:04 -20.5 °C -21 °C 34669.3 hPa Calm     93% 0 mm WeatherDisplay:10.37 W/m2 FEW
20:09 -20.5 °C -21 °C 34659.1 hPa Calm     93% 0 mm WeatherDisplay:10.37 W/m2 FEW
20:14 -20.5 °C -21.1 °C 34659.1 hPa Calm     93% 0 mm WeatherDisplay:10.37 W/m2 FEW
20:19 -20.6 °C -21.1 °C 34659.1 hPa Calm     93% 0 mm WeatherDisplay:10.37 W/m2 FEW
20:24 -20.6 °C -21.1 °C 34659.1 hPa Calm     93% 0 mm WeatherDisplay:10.37 W/m2 FEW
20:29 -20.6 °C -21.1 °C 34659.1 hPa Calm     93% 0 mm WeatherDisplay:10.37 W/m2 FEW
20:34 -20.6 °C -21.1 °C 34645.6 hPa Calm     93% 0 mm WeatherDisplay:10.37 W/m2 FEW
20:39 -20.6 °C -21.1 °C 34645.6 hPa Calm     93% 0 mm WeatherDisplay:10.37 W/m2 FEW
20:44 -20.6 °C -21.1 °C 34659.1 hPa Calm     93% 0 mm WeatherDisplay:10.37 W/m2 FEW
20:49 -20.6 °C -21.1 °C 34659.1 hPa Calm     93% 0 mm WeatherDisplay:10.37 W/m2 FEW
20:54 -20.6 °C -21.2 °C 34645.6 hPa Calm     93% 0 mm WeatherDisplay:10.37 W/m2 FEW
20:59 -20.6 °C -21.2 °C 34645.6 hPa Calm     93% 0 mm WeatherDisplay:10.37 W/m2 FEW
21:04 -20.6 °C -21.2 °C 34645.6 hPa Calm     93% 0 mm WeatherDisplay:10.37 W/m2 FEW
21:09 -20.6 °C -21.2 °C 34645.6 hPa Calm     93% 0 mm WeatherDisplay:10.37 W/m2 FEW
21:14 -20.6 °C -21.2 °C 34645.6 hPa Calm     93% 0 mm WeatherDisplay:10.37 W/m2 FEW
21:19 -20.7 °C -21.2 °C 34645.6 hPa Calm     93% 0 mm WeatherDisplay:10.37 W/m2 FEW
21:24 -20.7 °C -21.2 °C 34645.6 hPa Calm     93% 0 mm WeatherDisplay:10.37 W/m2 FEW
21:29 -20.7 °C -21.2 °C 34645.6 hPa Calm     93% 0 mm WeatherDisplay:10.37 W/m2 FEW
21:34 -20.7 °C -21.2 °C 34645.6 hPa Calm     93% 0 mm WeatherDisplay:10.37 W/m2 FEW
21:39 -20.7 °C -21.3 °C 34645.6 hPa Calm     93% 0 mm WeatherDisplay:10.37 W/m2 FEW
21:44 -20.8 °C -21.3 °C 34645.6 hPa Calm     93% 0 mm WeatherDisplay:10.37 W/m2 FEW
21:50 -20.8 °C -21.3 °C 34645.6 hPa Calm     93% 0 mm WeatherDisplay:10.37 W/m2 FEW
21:55 -20.9 °C -21.4 °C 34645.6 hPa Calm     93% 0 mm WeatherDisplay:10.37 W/m2 FEW
22:00 -20.9 °C -21.4 °C 34635.4 hPa Calm     93% 0 mm WeatherDisplay:10.37 W/m2 FEW
22:05 -21 °C -21.5 °C 34635.4 hPa Calm     93% 0 mm WeatherDisplay:10.37 W/m2 FEW
22:10 -21 °C -21.5 °C 34635.4 hPa Calm     93% 0 mm WeatherDisplay:10.37 W/m2 FEW
22:15 -21 °C -21.6 °C 34635.4 hPa Calm     93% 0 mm WeatherDisplay:10.37 W/m2 FEW
22:20 -21.1 °C -21.6 °C 34625.2 hPa Calm     93% 0 mm WeatherDisplay:10.37 W/m2 FEW
22:25 -21.1 °C -21.6 °C 34625.2 hPa Calm     93% 0 mm WeatherDisplay:10.37 W/m2 FEW
22:30 -21.1 °C -21.6 °C 34625.2 hPa Calm     93% 0 mm WeatherDisplay:10.37 W/m2 FEW
22:35 -21.1 °C -21.6 °C 34625.2 hPa Calm     93% 0 mm WeatherDisplay:10.37 W/m2 FEW
22:40 -21 °C -21.6 °C 34625.2 hPa Calm     93% 0 mm WeatherDisplay:10.37 W/m2 FEW
22:45 -21 °C -21.5 °C 34625.2 hPa Calm     93% 0 mm WeatherDisplay:10.37 W/m2 FEW
22:50 -20.9 °C -21.4 °C 34625.2 hPa Calm     93% 0 mm WeatherDisplay:10.37 W/m2 FEW
22:55 -20.9 °C -21.4 °C 34611.7 hPa Calm     93% 0 mm WeatherDisplay:10.37 W/m2 FEW
23:00 -20.8 °C -21.3 °C 34611.7 hPa Calm     93% 0 mm WeatherDisplay:10.37 W/m2 FEW
23:05 -20.7 °C -21.3 °C 34611.7 hPa Calm     93% 0 mm WeatherDisplay:10.37 W/m2 FEW
23:06 -20.7 °C -21.3 °C 34611.7 hPa Calm     93% 0 mm WeatherDisplay:10.37 W/m2 FEW
23:11 -20.7 °C -21.2 °C 34611.7 hPa Calm     93% 0 mm WeatherDisplay:10.37 W/m2 FEW
23:16 -20.6 °C -21.2 °C 34611.7 hPa Calm     93% 0 mm WeatherDisplay:10.37 W/m2 FEW
23:21 -20.6 °C -21.1 °C 34611.7 hPa Calm     93% 0 mm WeatherDisplay:10.37 W/m2 FEW
23:26 -20.5 °C -21 °C 34611.7 hPa Calm     93% 0 mm WeatherDisplay:10.37 W/m2 FEW
23:31 -20.4 °C -20.9 °C 34611.7 hPa Calm     93% 0 mm WeatherDisplay:10.37 W/m2 FEW
23:36 -20.4 °C -20.9 °C 34611.7 hPa Calm     93% 0 mm WeatherDisplay:10.37 W/m2 FEW
23:41 -20.3 °C -20.8 °C 34611.7 hPa Calm     93% 0 mm WeatherDisplay:10.37 W/m2 FEW
23:46 -20.3 °C -20.8 °C 34601.5 hPa Calm     93% 0 mm WeatherDisplay:10.37 W/m2 FEW
23:51 -20.2 °C -20.7 °C 34601.5 hPa Calm     93% 0 mm WeatherDisplay:10.37 W/m2 FEW
23:56 -20.1 °C -20.7 °C 34601.5 hPa Calm     93% 0 mm WeatherDisplay:10.37 W/m2 FEW
Tuulensuunkaari, Veikkola, Suomi
Compliments of Weather Underground - 2.75 mb